Time;durP1;ratioP1;P1;durP2;ratioP2;P2;SDS_P1;SDS_P2;PMS_P1;PMS_P2;Temp;Humidity;BMP_temperature;BMP_pressure;BME280_temperature;BME280_humidity;BME280_pressure;Samples;Min_cycle;Max_cycle;Signal;HPM_P1;HPM_P2
2021/12/17 00:00:59;;;;;;;524.08;75.63;;;;;;;7.36;100.00;103462.06;5023906;28;20535;-83
2021/12/17 00:03:42;;;;;;;520.90;80.28;;;;;;;7.35;100.00;103455.00;5040737;28;20045;-83
2021/12/17 00:06:58;;;;;;;558.92;80.72;;;;;;;7.36;100.00;103459.41;5025644;28;20497;-83
2021/12/17 00:09:00;;;;;;;530.80;76.20;;;;;;;7.35;100.00;103455.00;5028089;28;20052;-83
2021/12/17 00:11:27;;;;;;;509.35;81.10;;;;;;;7.36;100.00;103456.72;5008230;28;20520;-83
2021/12/17 00:13:54;;;;;;;487.75;75.57;;;;;;;7.37;100.00;103457.63;5030348;28;20053;-83
2021/12/17 00:16:26;;;;;;;456.20;72.35;;;;;;;7.36;100.00;103454.06;5026620;28;20401;-83
2021/12/17 00:19:18;;;;;;;422.08;65.72;;;;;;;7.36;100.00;103453.19;5050083;28;20083;-82
2021/12/17 00:48:22;;;;;;;538.08;85.35;;;;;;;7.33;100.00;103411.47;5032845;28;20052;-83
2021/12/17 00:49:48;;;;;;;533.85;77.00;;;;;;;7.32;100.00;103409.75;5027511;28;22229;-83
2021/12/17 00:52:16;;;;;;;604.08;83.38;;;;;;;7.32;100.00;103409.75;5053395;28;20507;-83
2021/12/17 00:54:43;;;;;;;625.10;87.13;;;;;;;7.33;100.00;103411.47;5024676;28;20067;-84
2021/12/17 00:57:18;;;;;;;640.58;86.20;;;;;;;7.33;100.00;103422.16;5025163;28;20055;-83
2021/12/17 00:59:48;;;;;;;675.70;92.47;;;;;;;7.34;100.00;103423.03;5043871;28;20064;-83
2021/12/17 01:02:21;;;;;;;648.15;88.25;;;;;;;7.34;100.00;103420.38;5027108;28;20614;-83
2021/12/17 01:04:50;;;;;;;658.83;78.95;;;;;;;7.32;100.00;103417.75;5028810;28;20145;-84
2021/12/17 01:07:18;;;;;;;665.47;84.80;;;;;;;7.34;100.00;103418.56;5048318;28;20041;-83
2021/12/17 01:09:45;;;;;;;740.58;94.82;;;;;;;7.34;100.00;103423.91;5047153;28;20057;-83
2021/12/17 01:12:13;;;;;;;708.92;94.72;;;;;;;7.33;100.00;103422.16;5010950;28;20045;-83
2021/12/17 01:14:40;;;;;;;702.10;88.35;;;;;;;7.33;100.00;103426.63;5043728;28;20678;-83
2021/12/17 01:17:10;;;;;;;620.47;75.78;;;;;;;7.32;100.00;103423.09;5045786;28;20041;-82
2021/12/17 01:24:54;;;;;;;651.30;85.30;;;;;;;7.34;100.00;103425.72;5044870;28;20090;-83
2021/12/17 01:35:38;;;;;;;555.03;79.10;;;;;;;7.23;100.00;103421.78;5046053;28;19986;-83
2021/12/17 01:43:36;;;;;;;556.20;82.80;;;;;;;7.29;100.00;103420.59;5025832;28;20037;-83
2021/12/17 01:46:05;;;;;;;564.90;79.13;;;;;;;7.29;100.00;103414.41;5033805;28;20041;-83
2021/12/17 01:48:38;;;;;;;533.45;76.03;;;;;;;7.29;100.00;103419.75;5025311;28;20041;-83
2021/12/17 01:56:52;;;;;;;507.95;70.80;;;;;;;7.25;100.00;103440.41;5041929;28;20051;-83
2021/12/17 01:59:27;;;;;;;477.40;64.00;;;;;;;7.23;100.00;103431.59;5020475;28;20041;-83
2021/12/17 02:02:01;;;;;;;435.67;67.38;;;;;;;7.24;100.00;103427.97;5011559;28;20045;-83
2021/12/17 02:04:26;;;;;;;450.65;61.05;;;;;;;7.24;100.00;103427.97;5040652;28;20033;-82
2021/12/17 02:06:53;;;;;;;453.00;63.70;;;;;;;7.24;100.00;103422.63;5029500;28;20572;-83
2021/12/17 02:10:13;;;;;;;351.23;60.40;;;;;;;7.23;100.00;103420.91;5027598;28;20639;-84
2021/12/17 02:31:56;;;;;;;268.70;44.40;;;;;;;7.15;100.00;103428.44;4969813;28;20042;-83
2021/12/17 02:36:59;;;;;;;255.77;44.08;;;;;;;7.14;100.00;103427.59;5042485;28;20045;-84
2021/12/17 02:39:56;;;;;;;256.80;47.55;;;;;;;7.15;100.00;103420.44;5026403;28;20090;-83
2021/12/17 02:47:38;;;;;;;299.13;50.10;;;;;;;7.12;100.00;103424.13;5038351;28;20051;-83
2021/12/17 02:50:06;;;;;;;324.20;51.08;;;;;;;7.13;100.00;103428.50;5027639;28;20048;-83
2021/12/17 02:52:36;;;;;;;316.33;50.17;;;;;;;7.14;100.00;103430.25;5023157;28;20045;-82
2021/12/17 02:55:07;;;;;;;340.75;53.28;;;;;;;7.14;100.00;103426.72;5021682;28;20124;-83
2021/12/17 02:57:34;;;;;;;327.83;53.90;;;;;;;7.14;100.00;103427.59;5024323;28;20041;-83
2021/12/17 03:00:08;;;;;;;332.67;55.40;;;;;;;7.14;100.00;103426.72;5042483;28;20174;-83
2021/12/17 03:02:38;;;;;;;313.35;56.15;;;;;;;7.14;100.00;103432.06;5026264;28;20147;-84
2021/12/17 03:05:06;;;;;;;338.40;53.58;;;;;;;7.14;100.00;103427.59;5025056;28;20044;-83
2021/12/17 03:07:39;;;;;;;330.88;53.40;;;;;;;7.14;100.00;103424.06;5026048;28;20045;-83
2021/12/17 03:10:09;;;;;;;325.30;54.72;;;;;;;7.13;100.00;103423.16;5044410;28;20048;-84
2021/12/17 03:12:52;;;;;;;290.77;44.97;;;;;;;7.11;100.00;103427.75;5026014;28;20044;-83
2021/12/17 03:15:39;;;;;;;328.65;52.00;;;;;;;7.11;100.00;103427.75;5027752;28;20061;-83
2021/12/17 03:26:01;;;;;;;330.83;53.25;;;;;;;7.09;100.00;103426.94;5028311;28;20037;-83
2021/12/17 03:28:27;;;;;;;340.13;54.08;;;;;;;7.10;100.00;103433.16;5020572;28;20041;-83
2021/12/17 03:30:53;;;;;;;333.08;48.88;;;;;;;7.12;100.00;103431.28;5029063;28;20033;-83
2021/12/17 03:33:21;;;;;;;330.70;50.17;;;;;;;7.11;100.00;103435.75;5020726;28;20056;-83
2021/12/17 03:35:50;;;;;;;338.33;49.25;;;;;;;7.11;100.00;103434.91;5026296;28;20073;-83
2021/12/17 03:38:16;;;;;;;344.20;52.42;;;;;;;7.10;100.00;103431.34;5027730;28;20037;-83
2021/12/17 03:40:43;;;;;;;346.73;50.10;;;;;;;7.10;100.00;103430.47;5025950;28;20037;-81
2021/12/17 03:43:13;;;;;;;352.77;52.22;;;;;;;7.10;100.00;103430.47;5025040;28;20046;-82
2021/12/17 03:45:43;;;;;;;336.52;50.22;;;;;;;7.10;100.00;103417.13;5044886;28;20442;-83
2021/12/17 03:48:10;;;;;;;406.10;54.65;;;;;;;7.08;100.00;103417.22;5026552;28;20041;-83
2021/12/17 03:50:37;;;;;;;344.95;51.75;;;;;;;7.09;100.00;103415.41;5047101;28;20045;-83
2021/12/17 03:53:06;;;;;;;337.83;50.90;;;;;;;7.09;100.00;103424.28;5048249;28;20492;-82
2021/12/17 03:55:33;;;;;;;361.02;52.00;;;;;;;7.09;100.00;103432.28;5025879;28;20087;-83
2021/12/17 03:58:00;;;;;;;322.92;49.72;;;;;;;7.08;100.00;103433.25;5049138;28;20029;-83
2021/12/17 04:00:29;;;;;;;323.30;50.70;;;;;;;7.09;100.00;103431.44;5024395;28;20049;-84
2021/12/17 04:02:58;;;;;;;288.65;47.67;;;;;;;7.07;100.00;103427.97;5041619;28;20098;-83
2021/12/17 04:05:25;;;;;;;293.88;48.42;;;;;;;7.08;100.00;103437.69;5030282;28;20044;-84
2021/12/17 04:07:51;;;;;;;376.15;54.78;;;;;;;7.07;100.00;103430.63;5030650;28;20043;-84
2021/12/17 04:10:23;;;;;;;361.23;54.22;;;;;;;7.08;100.00;103429.69;5028556;28;20733;-84
2021/12/17 04:13:02;;;;;;;319.63;47.40;;;;;;;7.04;100.00;103426.31;5014085;28;20393;-84
2021/12/17 04:15:35;;;;;;;;;;;;;;;7.04;100.00;103418.31;5046706;28;20705;-84
2021/12/17 04:18:09;;;;;;;323.70;52.95;;;;;;;6.98;100.00;103416.81;5032337;28;19987;-84
2021/12/17 04:20:35;;;;;;;339.13;55.28;;;;;;;7.00;100.00;103424.75;5016126;28;20056;-83
2021/12/17 04:23:01;;;;;;;302.35;51.15;;;;;;;7.02;100.00;103422.88;5012534;28;20045;-83
2021/12/17 04:25:28;;;;;;;331.45;55.80;;;;;;;7.03;100.00;103423.72;5008515;28;20033;-84
2021/12/17 04:28:01;;;;;;;319.67;53.60;;;;;;;7.04;100.00;103430.78;5028494;28;20045;-83
2021/12/17 04:30:28;;;;;;;317.15;53.53;;;;;;;7.04;100.00;103430.78;5044629;28;20083;-83
2021/12/17 04:32:54;;;;;;;337.98;55.17;;;;;;;7.04;100.00;103431.66;5028121;28;20033;-84
2021/12/17 04:35:21;;;;;;;348.80;58.28;;;;;;;7.06;100.00;103428.91;5028334;28;20051;-84
2021/12/17 04:37:58;;;;;;;302.58;50.88;;;;;;;7.04;100.00;103428.13;5047308;28;20053;-84
2021/12/17 04:40:27;;;;;;;300.45;52.10;;;;;;;7.04;100.00;103428.97;5029851;28;20114;-84
2021/12/17 04:45:25;;;;;;;261.23;47.85;;;;;;;7.03;100.00;103431.75;5047939;28;21133;-84
2021/12/17 04:58:56;;;;;;;283.10;55.05;;;;;;;7.02;100.00;103444.25;5045367;28;20079;-84
2021/12/17 05:01:22;;;;;;;263.05;45.08;;;;;;;7.01;100.00;103439.81;5045122;28;20049;-84
2021/12/17 05:03:48;;;;;;;263.35;49.60;;;;;;;7.00;100.00;103446.97;5040566;28;20043;-84
2021/12/17 05:06:14;;;;;;;235.90;49.10;;;;;;;7.01;100.00;103446.00;5013647;28;20401;-84
2021/12/17 05:08:39;;;;;;;231.38;45.78;;;;;;;7.01;100.00;103446.00;4997830;28;20041;-84
2021/12/17 05:21:44;;;;;;;202.20;39.65;;;;;;;6.97;100.00;103438.25;5022649;28;20438;-84
2021/12/17 05:24:10;;;;;;;195.63;38.17;;;;;;;6.97;100.00;103457.81;5013466;28;20045;-84
2021/12/17 05:26:35;;;;;;;195.32;37.80;;;;;;;6.95;100.00;103446.31;5009577;28;20085;-84
2021/12/17 05:29:04;;;;;;;215.25;39.28;;;;;;;6.96;100.00;103448.06;5023959;28;20061;-86
2021/12/17 05:31:29;;;;;;;171.75;33.55;;;;;;;6.96;100.00;103445.41;5030833;28;20136;-84
2021/12/17 05:33:56;;;;;;;176.55;36.38;;;;;;;6.97;100.00;103439.13;5028613;28;20132;-83
2021/12/17 05:36:26;;;;;;;197.63;38.20;;;;;;;6.97;100.00;103440.91;5025012;28;20056;-83
2021/12/17 05:38:54;;;;;;;200.93;42.30;;;;;;;6.97;100.00;103447.13;5030252;28;20152;-84
2021/12/17 05:41:19;;;;;;;177.40;39.67;;;;;;;6.97;100.00;103449.78;5008984;28;20929;-84
2021/12/17 05:43:54;;;;;;;187.85;45.72;;;;;;;6.97;100.00;103452.47;5028820;28;20048;-84
2021/12/17 05:46:24;;;;;;;192.30;42.53;;;;;;;6.95;100.00;103443.66;5019910;28;20044;-84
2021/12/17 05:48:49;;;;;;;194.50;45.78;;;;;;;6.96;100.00;103448.06;5006612;28;20065;-84
2021/12/17 05:51:14;;;;;;;206.18;48.08;;;;;;;6.95;100.00;103440.97;5024317;28;20397;-83
2021/12/17 05:53:40;;;;;;;198.68;44.58;;;;;;;6.95;100.00;103449.00;4986264;28;20118;-85
2021/12/17 05:56:05;;;;;;;165.45;37.78;;;;;;;6.96;100.00;103448.06;4997751;28;20045;-84
2021/12/17 05:58:31;;;;;;;159.70;36.97;;;;;;;6.97;100.00;103448.94;5032813;28;20102;-84
2021/12/17 06:00:57;;;;;;;145.75;34.88;;;;;;;6.96;100.00;103445.41;5027775;28;20136;-84
2021/12/17 06:03:23;;;;;;;186.65;42.22;;;;;;;6.96;100.00;103449.84;5009653;28;20045;-84
2021/12/17 06:05:48;;;;;;;171.02;41.45;;;;;;;6.95;100.00;103440.97;5026202;28;20038;-84
2021/12/17 06:08:14;;;;;;;203.20;40.70;;;;;;;6.95;100.00;103437.47;5030085;28;20069;-84
2021/12/17 06:10:41;;;;;;;167.35;32.58;;;;;;;6.95;100.00;103438.31;5024912;28;20112;-85
2021/12/17 06:13:06;;;;;;;162.68;35.63;;;;;;;6.95;100.00;103427.63;5021905;28;20051;-84
2021/12/17 06:15:32;;;;;;;175.90;35.53;;;;;;;6.95;100.00;103432.13;5021207;28;20049;-83
2021/12/17 06:17:57;;;;;;;183.70;38.15;;;;;;;6.96;100.00;103444.50;5023092;28;20068;-84
2021/12/17 06:20:24;;;;;;;178.65;40.90;;;;;;;6.95;100.00;103438.31;5026512;28;20068;-84
2021/12/17 06:22:50;;;;;;;156.57;37.35;;;;;;;6.97;100.00;103430.25;5026738;28;20041;-84
2021/12/17 06:25:16;;;;;;;141.75;31.85;;;;;;;6.96;100.00;103439.16;5023797;28;20099;-84
2021/12/17 06:27:42;;;;;;;137.95;30.67;;;;;;;6.95;100.00;103437.47;5022857;28;20061;-84
2021/12/17 06:30:10;;;;;;;128.52;34.95;;;;;;;6.95;100.00;103434.78;5023050;28;20041;-83
2021/12/17 06:32:36;;;;;;;155.55;39.38;;;;;;;6.95;100.00;103443.66;5022317;28;20498;-84
2021/12/17 06:35:03;;;;;;;164.15;42.67;;;;;;;6.94;100.00;103449.94;5018389;28;20056;-84
2021/12/17 06:37:29;;;;;;;146.48;37.70;;;;;;;6.94;100.00;103444.59;5036517;28;20049;-83
2021/12/17 06:39:58;;;;;;;141.38;36.92;;;;;;;6.94;100.00;103436.59;5021959;28;20037;-84
2021/12/17 06:42:26;;;;;;;133.95;31.15;;;;;;;6.92;100.00;103442.94;5019673;28;20055;-84
2021/12/17 06:44:56;;;;;;;136.23;30.48;;;;;;;6.93;100.00;103444.66;5025333;28;20052;-84
2021/12/17 06:49:58;;;;;;;116.77;29.37;;;;;;;6.92;100.00;103445.63;5022987;28;20061;-85
2021/12/17 07:00:39;;;;;;;125.78;29.83;;;;;;;6.88;100.00;103446.72;5042121;28;20128;-85
2021/12/17 07:05:58;;;;;;;125.97;31.67;;;;;;;6.86;100.00;103438.78;5030319;28;20098;-84
2021/12/17 07:11:50;;;;;;;110.30;30.40;;;;;;;6.85;100.00;103436.16;5041597;28;20079;-84
2021/12/17 07:22:29;;;;;;;98.45;28.60;;;;;;;6.83;100.00;103454.94;5042846;28;20043;-84
2021/12/17 07:35:54;;;;;;;126.63;35.83;;;;;;;6.82;100.00;103449.66;4986298;28;20123;-84
2021/12/17 07:41:03;;;;;;;91.68;25.17;;;;;;;6.81;100.00;103454.16;5007871;28;20128;-84
2021/12/17 07:43:38;;;;;;;107.78;29.05;;;;;;;6.82;100.00;103457.66;5007422;28;20135;-84
2021/12/17 07:46:09;;;;;;;93.55;25.27;;;;;;;6.83;100.00;103470.97;5038414;28;20045;-84
2021/12/17 07:48:36;;;;;;;94.15;24.42;;;;;;;6.82;100.00;103471.91;5003400;28;20107;-84
2021/12/17 07:51:03;;;;;;;92.20;24.92;;;;;;;6.83;100.00;103470.97;5044129;28;20429;-84
2021/12/17 07:53:30;;;;;;;105.10;27.98;;;;;;;6.84;100.00;103474.47;5040525;28;20045;-84
2021/12/17 07:55:57;;;;;;;109.18;29.52;;;;;;;6.83;100.00;103464.75;5021566;28;20445;-84
2021/12/17 07:58:24;;;;;;;103.13;29.20;;;;;;;6.81;100.00;103456.81;5038866;28;20030;-84
2021/12/17 08:00:50;;;;;;;98.80;25.80;;;;;;;6.83;100.00;103465.63;5023571;28;20051;-85
2021/12/17 08:03:15;;;;;;;96.45;29.80;;;;;;;6.84;100.00;103472.69;5023858;28;20041;-84
2021/12/17 08:05:42;;;;;;;95.45;27.33;;;;;;;6.83;100.00;103475.44;5020908;28;20037;-84
2021/12/17 08:08:09;;;;;;;93.32;30.58;;;;;;;6.83;100.00;103470.97;5040881;28;20044;-84
2021/12/17 08:10:35;;;;;;;92.32;30.25;;;;;;;6.84;100.00;103467.34;5042330;28;20041;-84
2021/12/17 08:13:00;;;;;;;93.20;30.63;;;;;;;6.83;100.00;103473.63;5023441;28;20760;-83
2021/12/17 08:15:34;;;;;;;95.07;35.30;;;;;;;6.84;100.00;103475.34;5023155;28;20246;-84
2021/12/17 08:28:17;;;;;;;90.10;29.02;;;;;;;6.87;100.00;103487.69;5021375;28;20043;-84
2021/12/17 08:30:45;;;;;;;88.75;29.67;;;;;;;6.88;100.00;103479.63;5020463;28;20672;-84
2021/12/17 08:33:13;;;;;;;81.05;28.83;;;;;;;6.89;100.00;103483.16;5042216;28;20044;-84
2021/12/17 08:35:38;;;;;;;86.32;33.10;;;;;;;6.89;100.00;103502.69;5025109;28;20072;-84
2021/12/17 08:38:07;;;;;;;83.80;29.67;;;;;;;6.90;100.00;103499.06;5032076;28;20045;-84
2021/12/17 08:40:33;;;;;;;92.68;31.65;;;;;;;6.90;100.00;103498.22;5027257;28;20041;-85
2021/12/17 08:43:01;;;;;;;76.55;26.38;;;;;;;6.90;100.00;103496.41;5028081;28;20037;-84
2021/12/17 08:45:27;;;;;;;80.15;34.97;;;;;;;6.91;100.00;103494.63;5045582;28;20132;-85
2021/12/17 08:47:52;;;;;;;78.63;28.13;;;;;;;6.92;100.00;103491.84;5025943;28;20297;-85
2021/12/17 08:50:19;;;;;;;75.35;25.48;;;;;;;6.93;100.00;103501.63;5026335;28;20042;-84
2021/12/17 08:52:46;;;;;;;75.30;27.80;;;;;;;6.98;100.00;103506.72;5042081;28;20485;-85
2021/12/17 08:55:13;;;;;;;70.50;24.38;;;;;;;6.97;100.00;103505.84;5045400;28;20477;-84
2021/12/17 08:57:40;;;;;;;68.95;24.17;;;;;;;6.97;100.00;103492.50;5039863;28;20036;-85
2021/12/17 09:00:09;;;;;;;70.32;30.20;;;;;;;7.03;100.00;103501.16;5043024;28;20041;-84
2021/12/17 09:02:37;;;;;;;58.10;25.15;;;;;;;7.01;100.00;103499.41;5017946;28;20037;-85
2021/12/17 09:05:04;;;;;;;49.78;20.17;;;;;;;7.01;100.00;103507.41;5010845;28;20044;-85
2021/12/17 09:07:31;;;;;;;69.78;29.27;;;;;;;7.03;100.00;103503.84;5015921;28;20045;-85
2021/12/17 09:09:57;;;;;;;59.75;20.85;;;;;;;7.01;100.00;103495.88;5025831;28;20056;-85
2021/12/17 09:12:22;;;;;;;52.15;24.58;;;;;;;7.03;100.00;103498.50;5018764;28;20045;-84
2021/12/17 09:14:49;;;;;;;56.85;24.50;;;;;;;7.04;100.00;103505.56;5018665;28;20103;-84
2021/12/17 09:17:14;;;;;;;58.08;21.42;;;;;;;7.05;100.00;103502.81;5026183;28;20507;-84
2021/12/17 09:19:41;;;;;;;53.80;22.90;;;;;;;7.09;100.00;103511.53;5025679;28;20152;-85
2021/12/17 09:22:07;;;;;;;48.63;20.05;;;;;;;7.09;100.00;103508.88;5022271;28;20053;-85
2021/12/17 09:24:33;;;;;;;50.15;18.90;;;;;;;7.08;100.00;103512.47;5002720;28;20045;-84
2021/12/17 09:26:59;;;;;;;58.55;24.17;;;;;;;7.12;100.00;103509.56;5022931;28;20044;-84
2021/12/17 09:29:31;;;;;;;56.75;22.88;;;;;;;7.13;100.00;103516.63;5005046;28;20068;-84
2021/12/17 09:32:00;;;;;;;61.05;23.33;;;;;;;7.14;100.00;103523.72;5024305;28;20452;-85
2021/12/17 09:34:25;;;;;;;;;;;;;;;7.16;100.00;103520.97;5023068;28;20555;-85
2021/12/17 09:36:51;;;;;;;62.72;25.23;;;;;;;7.12;100.00;103524.75;5021077;28;19920;-84
2021/12/17 09:39:18;;;;;;;55.53;23.98;;;;;;;7.11;100.00;103528.38;5024597;28;20448;-85
2021/12/17 09:41:47;;;;;;;54.17;24.38;;;;;;;7.14;100.00;103522.88;5005152;28;20611;-85
2021/12/17 09:44:15;;;;;;;54.15;24.08;;;;;;;7.15;100.00;103528.13;5036286;28;20064;-84
2021/12/17 09:46:43;;;;;;;65.25;24.92;;;;;;;7.16;100.00;103532.53;5019651;28;20506;-85
2021/12/17 09:49:10;;;;;;;63.95;31.38;;;;;;;7.19;100.00;103536.84;5017702;28;20051;-84
2021/12/17 09:51:36;;;;;;;50.15;22.70;;;;;;;7.21;100.00;103527.81;5024462;28;20033;-84
2021/12/17 09:54:02;;;;;;;50.65;22.65;;;;;;;7.19;100.00;103535.06;5024475;28;20083;-85
2021/12/17 09:56:30;;;;;;;54.80;23.42;;;;;;;7.20;100.00;103533.25;5025084;28;20041;-85
2021/12/17 09:58:56;;;;;;;39.10;19.08;;;;;;;7.19;100.00;103526.16;5020765;28;20033;-84
2021/12/17 10:01:25;;;;;;;39.15;18.77;;;;;;;7.23;100.00;103523.28;5024907;28;20041;-85
2021/12/17 10:04:13;;;;;;;;;;;;;;;7.27;100.00;103528.47;5023730;28;20060;-84
2021/12/17 10:06:39;;;;;;;33.63;16.38;;;;;;;7.19;100.00;103531.50;5023498;28;20031;-84
2021/12/17 10:09:08;;;;;;;30.67;14.30;;;;;;;7.24;100.00;103535.66;5023726;28;20053;-84
2021/12/17 10:11:33;;;;;;;34.55;17.13;;;;;;;7.32;100.00;103543.31;5023554;28;20572;-85
2021/12/17 10:14:19;;;;;;;28.08;15.45;;;;;;;7.36;100.00;103536.00;5021241;28;20045;-84
2021/12/17 10:16:45;;;;;;;31.15;17.33;;;;;;;7.37;100.00;103538.63;5017591;28;20046;-85
2021/12/17 10:19:11;;;;;;;33.28;17.33;;;;;;;7.42;100.00;103538.38;5006729;28;20398;-84
2021/12/17 10:21:44;;;;;;;34.55;18.92;;;;;;;7.49;100.00;103544.28;5024276;28;20373;-85
2021/12/17 10:24:21;;;;;;;29.88;15.35;;;;;;;7.53;100.00;103548.53;5039610;28;20146;-85
2021/12/17 10:26:48;;;;;;;23.38;13.63;;;;;;;7.47;100.00;103550.56;5006403;28;20056;-85
2021/12/17 10:29:21;;;;;;;24.42;14.88;;;;;;;7.51;100.00;103550.41;5034266;28;20517;-85
2021/12/17 10:31:57;;;;;;;27.50;17.58;;;;;;;7.52;100.00;103544.13;5016688;28;20045;-84
2021/12/17 10:34:25;;;;;;;21.10;12.13;;;;;;;7.58;100.00;103549.16;5019679;28;20076;-85
2021/12/17 10:36:50;;;;;;;22.48;12.93;;;;;;;7.63;100.00;103549.81;5037882;28;20060;-85
2021/12/17 10:39:30;;;;;;;22.05;13.15;;;;;;;7.69;100.00;103546.81;5025525;28;20037;-85
2021/12/17 10:41:55;;;;;;;18.42;13.70;;;;;;;7.68;100.00;103551.31;5015274;28;20866;-84
2021/12/17 10:44:22;;;;;;;20.02;13.55;;;;;;;7.74;100.00;103552.81;5019714;28;20084;-84
2021/12/17 10:47:07;;;;;;;20.08;13.82;;;;;;;7.76;100.00;103548.22;5005520;28;20493;-84
2021/12/17 10:49:33;;;;;;;21.02;14.30;;;;;;;7.75;100.00;103546.50;5024241;28;20485;-84
2021/12/17 10:52:14;;;;;;;20.90;14.48;;;;;;;7.73;100.00;103542.16;5020504;28;20061;-83
2021/12/17 10:54:39;;;;;;;19.02;11.77;;;;;;;7.73;100.00;103544.84;5024394;28;20041;-84
2021/12/17 10:57:08;;;;;;;18.92;12.60;;;;;;;7.74;100.00;103543.88;5025083;28;20045;-84
2021/12/17 10:59:35;;;;;;;17.30;12.02;;;;;;;7.76;100.00;103553.56;5000002;28;20205;-84
2021/12/17 11:02:06;;;;;;;20.90;12.57;;;;;;;7.79;100.00;103553.41;5021904;28;20405;-83
2021/12/17 11:04:35;;;;;;;18.67;13.88;;;;;;;7.82;100.00;103550.56;5019747;28;20038;-83
2021/12/17 11:07:10;;;;;;;22.80;15.80;;;;;;;7.82;100.00;103553.25;5015074;28;20052;-84
2021/12/17 11:09:39;;;;;;;19.30;13.27;;;;;;;7.81;100.00;103548.00;5035196;28;20833;-84
2021/12/17 11:12:12;;;;;;;22.55;13.25;;;;;;;7.85;100.00;103539.75;5019988;28;20472;-84
2021/12/17 11:14:39;;;;;;;21.00;13.27;;;;;;;7.89;100.00;103538.63;5023780;28;20044;-84
2021/12/17 11:17:06;;;;;;;17.35;11.65;;;;;;;7.88;100.00;103538.69;5004862;28;20711;-84
2021/12/17 11:19:33;;;;;;;20.38;14.25;;;;;;;7.90;100.00;103534.13;5020755;28;20517;-84
2021/12/17 11:21:59;;;;;;;18.90;14.70;;;;;;;7.93;100.00;103546.50;5022694;28;20045;-84
2021/12/17 11:24:25;;;;;;;19.02;12.60;;;;;;;7.89;100.00;103543.13;5023766;28;20041;-84
2021/12/17 11:26:51;;;;;;;17.80;11.55;;;;;;;7.93;100.00;103538.47;5020617;28;20618;-84
2021/12/17 11:29:17;;;;;;;18.13;12.25;;;;;;;7.95;100.00;103541.94;5022232;28;20072;-83
2021/12/17 11:31:43;;;;;;;18.13;11.85;;;;;;;7.91;100.00;103536.75;5019129;28;20128;-84
2021/12/17 11:34:10;;;;;;;18.13;11.63;;;;;;;7.90;100.00;103540.34;5021001;28;20060;-84
2021/12/17 11:36:35;;;;;;;18.83;12.05;;;;;;;7.90;100.00;103531.47;5020307;28;20557;-84
2021/12/17 11:39:16;;;;;;;15.70;10.68;;;;;;;7.91;100.00;103535.84;5022223;28;20141;-84
2021/12/17 11:41:59;;;;;;;17.33;11.05;;;;;;;7.95;100.00;103533.91;5018490;28;20037;-84
2021/12/17 11:44:39;;;;;;;15.70;11.13;;;;;;;7.93;100.00;103527.78;5019792;28;20044;-84
2021/12/17 11:47:12;;;;;;;20.45;12.98;;;;;;;7.95;100.00;103536.59;5001291;28;20049;-83
2021/12/17 11:49:39;;;;;;;18.08;10.73;;;;;;;7.99;100.00;103532.78;5021906;28;20057;-84
2021/12/17 11:52:05;;;;;;;23.08;15.10;;;;;;;8.03;100.00;103532.56;5019206;28;20053;-84
2021/12/17 11:54:34;;;;;;;20.88;13.18;;;;;;;8.06;100.00;103531.53;5020013;28;20425;-84
2021/12/17 11:57:12;;;;;;;18.08;11.80;;;;;;;8.04;100.00;103536.09;5018898;28;20049;-84
2021/12/17 11:59:45;;;;;;;16.80;12.00;;;;;;;8.03;100.00;103534.38;5018795;28;20037;-84
2021/12/17 12:02:19;;;;;;;28.85;18.67;;;;;;;8.03;100.00;103539.72;5020823;28;20480;-84
2021/12/17 12:04:47;;;;;;;15.55;10.43;;;;;;;8.02;100.00;103527.28;5020538;28;20136;-83
2021/12/17 12:07:13;;;;;;;16.90;11.43;;;;;;;8.02;100.00;103528.16;5027334;28;20041;-84
2021/12/17 12:10:00;;;;;;;16.90;10.40;;;;;;;8.04;100.00;103536.09;5022268;28;20042;-84
2021/12/17 12:12:41;;;;;;;20.60;14.30;;;;;;;8.06;100.00;103526.19;5026305;28;20044;-84
2021/12/17 12:15:24;;;;;;;27.30;20.58;;;;;;;8.09;100.00;103518.00;5014929;28;20045;-84
2021/12/17 12:18:06;;;;;;;19.95;12.15;;;;;;;8.11;100.00;103510.75;5034876;28;20042;-84
2021/12/17 12:20:50;;;;;;;23.50;16.23;;;;;;;8.13;100.00;103512.41;5027904;28;20045;-83
2021/12/17 12:23:28;;;;;;;18.98;13.15;;;;;;;8.20;100.00;103518.31;5010308;28;20045;-84
2021/12/17 12:26:02;;;;;;;19.92;15.05;;;;;;;8.19;100.00;103519.22;5039812;28;20203;-84
2021/12/17 12:31:17;;;;;;;19.60;15.05;;;;;;;8.19;100.00;103519.22;5020736;28;20049;-84
2021/12/17 12:33:58;;;;;;;19.55;13.73;;;;;;;8.25;100.00;103518.88;5030448;28;20101;-84
2021/12/17 12:36:47;;;;;;;16.50;12.32;;;;;;;8.27;100.00;103513.47;5046057;28;20036;-83
2021/12/17 12:39:21;;;;;;;18.75;13.50;;;;;;;8.30;100.00;103515.97;5028638;28;20047;-84
2021/12/17 12:42:17;;;;;;;20.48;13.82;;;;;;;8.28;100.00;103508.03;5026427;28;20059;-83
2021/12/17 12:44:49;;;;;;;18.67;14.40;;;;;;;8.27;100.00;103495.59;5040660;28;20040;-83
2021/12/17 12:47:23;;;;;;;17.95;13.43;;;;;;;8.27;100.00;103508.97;5040467;28;20133;-84
2021/12/17 12:49:56;;;;;;;18.92;12.30;;;;;;;8.30;100.00;103508.81;5035475;28;20045;-84
2021/12/17 12:52:30;;;;;;;14.10;11.23;;;;;;;8.30;100.00;103508.81;5043430;28;20491;-84
2021/12/17 12:55:25;;;;;;;15.35;12.48;;;;;;;8.31;100.00;103507.00;5043260;28;20497;-84
2021/12/17 12:57:50;;;;;;;16.15;12.95;;;;;;;8.32;100.00;103503.41;5037279;28;20048;-84
2021/12/17 13:00:42;;;;;;;16.40;13.32;;;;;;;8.34;100.00;103513.06;5029590;28;20102;-84
2021/12/17 13:03:09;;;;;;;17.98;13.43;;;;;;;8.34;100.00;103506.81;5016635;28;20088;-83
2021/12/17 13:05:36;;;;;;;17.65;13.68;;;;;;;8.34;100.00;103507.72;5049160;28;20073;-85
2021/12/17 13:08:05;;;;;;;14.98;12.55;;;;;;;8.32;100.00;103501.56;5030503;28;20041;-84
2021/12/17 13:10:54;;;;;;;17.25;12.98;;;;;;;8.32;100.00;103500.72;5048319;28;20057;-85
2021/12/17 13:21:46;;;;;;;18.52;13.23;;;;;;;8.32;100.00;103498.91;5041619;28;20049;-84
2021/12/17 13:24:17;;;;;;;17.73;12.98;;;;;;;8.33;100.00;103495.25;5014768;28;20038;-84
2021/12/17 13:26:46;;;;;;;31.85;26.30;;;;;;;8.37;100.00;103490.59;5025916;28;20046;-83
2021/12/17 13:29:30;;;;;;;17.23;12.70;;;;;;;8.32;100.00;103498.91;5027097;28;20046;-82
2021/12/17 13:31:56;;;;;;;16.33;13.18;;;;;;;8.33;100.00;103492.59;5024264;28;28848;-82
2021/12/17 13:34:24;;;;;;;17.15;11.98;;;;;;;8.34;100.00;103485.41;5028141;28;20045;-83
2021/12/17 13:37:18;;;;;;;16.48;12.82;;;;;;;8.34;100.00;103486.31;5030490;28;20051;-82
2021/12/17 13:39:56;;;;;;;18.63;12.65;;;;;;;8.36;100.00;103481.72;5037019;28;20096;-83
2021/12/17 13:42:25;;;;;;;15.45;10.85;;;;;;;8.30;100.00;103474.03;5028162;28;20050;-83
2021/12/17 13:44:59;;;;;;;15.43;11.77;;;;;;;8.33;100.00;103476.53;5043473;28;20112;-82
2021/12/17 13:47:35;;;;;;;15.60;11.25;;;;;;;8.32;100.00;103482.84;5027549;28;20088;-83
2021/12/17 13:50:12;;;;;;;16.38;12.02;;;;;;;8.33;100.00;103468.50;5026019;28;20069;-83
2021/12/17 13:53:05;;;;;;;17.25;12.73;;;;;;;8.35;100.00;103477.31;5030165;28;20041;-82
2021/12/17 13:55:35;;;;;;;13.40;10.13;;;;;;;8.33;100.00;103462.31;5009863;28;20534;-82
2021/12/17 13:58:01;;;;;;;;;;;;;;;8.27;100.00;103476.03;5027340;28;20052;-83
2021/12/17 14:00:32;;;;;;;11.60;8.63;;;;;;;8.20;100.00;103482.63;5026899;28;19948;-83
2021/12/17 14:02:58;;;;;;;13.55;8.57;;;;;;;8.22;100.00;103489.63;5026140;28;20046;-83
2021/12/17 14:05:30;;;;;;;11.82;9.38;;;;;;;8.22;100.00;103486.09;5028892;28;20037;-83
2021/12/17 14:08:00;;;;;;;10.48;8.05;;;;;;;8.21;100.00;103487.06;5026004;28;20053;-84
2021/12/17 14:10:36;;;;;;;10.40;8.65;;;;;;;8.22;100.00;103481.59;5041054;28;20045;-84